sensor_id;sensor_type;location;lat;lon;timestamp;temperature;humidity
15922;DHT22;8060;50.948;3.146;2022-12-07T08:01:35;5.30;99.90
15922;DHT22;8060;50.948;3.146;2022-12-07T08:43:11;5.70;99.90
15922;DHT22;8060;50.948;3.146;2022-12-07T08:45:40;5.60;99.90
15922;DHT22;8060;50.948;3.146;2022-12-07T08:48:11;5.70;99.90
15922;DHT22;8060;50.948;3.146;2022-12-07T08:50:40;5.70;99.90
15922;DHT22;8060;50.948;3.146;2022-12-07T08:53:15;5.80;99.90
15922;DHT22;8060;50.948;3.146;2022-12-07T08:55:44;5.80;99.90
15922;DHT22;8060;50.948;3.146;2022-12-07T09:12:26;5.90;99.90
15922;DHT22;8060;50.948;3.146;2022-12-07T09:14:55;5.80;99.90
15922;DHT22;8060;50.948;3.146;2022-12-07T09:17:23;5.90;99.90
15922;DHT22;8060;50.948;3.146;2022-12-07T09:19:52;5.90;99.90
15922;DHT22;8060;50.948;3.146;2022-12-07T09:22:20;5.90;99.90
15922;DHT22;8060;50.948;3.146;2022-12-07T09:24:48;6.00;99.90
15922;DHT22;8060;50.948;3.146;2022-12-07T09:27:16;6.00;99.90
15922;DHT22;8060;50.948;3.146;2022-12-07T09:29:46;6.20;99.90
15922;DHT22;8060;50.948;3.146;2022-12-07T09:32:14;6.20;99.90
15922;DHT22;8060;50.948;3.146;2022-12-07T09:34:45;6.30;99.90
15922;DHT22;8060;50.948;3.146;2022-12-07T09:37:14;6.30;99.90
15922;DHT22;8060;50.948;3.146;2022-12-07T09:39:42;6.30;99.90
15922;DHT22;8060;50.948;3.146;2022-12-07T09:42:26;6.40;99.90
15922;DHT22;8060;50.948;3.146;2022-12-07T09:44:57;6.40;99.90
15922;DHT22;8060;50.948;3.146;2022-12-07T09:47:26;6.60;99.90
15922;DHT22;8060;50.948;3.146;2022-12-07T09:50:03;6.80;99.90
15922;DHT22;8060;50.948;3.146;2022-12-07T09:52:32;7.00;99.90
15922;DHT22;8060;50.948;3.146;2022-12-07T09:55:11;7.30;99.90
15922;DHT22;8060;50.948;3.146;2022-12-07T09:57:42;7.50;99.90
15922;DHT22;8060;50.948;3.146;2022-12-07T10:00:15;7.80;99.90
15922;DHT22;8060;50.948;3.146;2022-12-07T10:02:46;8.30;99.90
15922;DHT22;8060;50.948;3.146;2022-12-07T10:05:16;8.70;99.90
15922;DHT22;8060;50.948;3.146;2022-12-07T10:07:50;9.00;99.90
15922;DHT22;8060;50.948;3.146;2022-12-07T10:10:23;8.90;99.90
15922;DHT22;8060;50.948;3.146;2022-12-07T10:12:57;8.70;99.90
15922;DHT22;8060;50.948;3.146;2022-12-07T10:15:47;8.60;99.90
15922;DHT22;8060;50.948;3.146;2022-12-07T10:18:28;8.50;99.90
15922;DHT22;8060;50.948;3.146;2022-12-07T10:21:12;8.30;99.90
15922;DHT22;8060;50.948;3.146;2022-12-07T10:23:42;8.20;99.90
15922;DHT22;8060;50.948;3.146;2022-12-07T10:26:29;8.10;99.90
15922;DHT22;8060;50.948;3.146;2022-12-07T10:29:00;7.90;99.90
15922;DHT22;8060;50.948;3.146;2022-12-07T10:31:30;8.10;99.90
15922;DHT22;8060;50.948;3.146;2022-12-07T10:34:01;8.20;99.90
15922;DHT22;8060;50.948;3.146;2022-12-07T10:36:35;8.40;99.90
15922;DHT22;8060;50.948;3.146;2022-12-07T10:39:11;8.70;99.90
15922;DHT22;8060;50.948;3.146;2022-12-07T10:41:53;9.00;99.90
15922;DHT22;8060;50.948;3.146;2022-12-07T10:44:24;9.00;99.90
15922;DHT22;8060;50.948;3.146;2022-12-07T10:47:08;9.30;99.90
15922;DHT22;8060;50.948;3.146;2022-12-07T10:50:02;9.50;99.90
15922;DHT22;8060;50.948;3.146;2022-12-07T10:52:45;9.90;99.90
15922;DHT22;8060;50.948;3.146;2022-12-07T10:55:23;9.80;99.90
15922;DHT22;8060;50.948;3.146;2022-12-07T10:58:09;9.50;99.90
15922;DHT22;8060;50.948;3.146;2022-12-07T11:00:46;9.40;99.90
15922;DHT22;8060;50.948;3.146;2022-12-07T11:03:40;9.20;99.90
15922;DHT22;8060;50.948;3.146;2022-12-07T11:06:20;9.00;99.90
15922;DHT22;8060;50.948;3.146;2022-12-07T11:09:02;8.80;99.90
15922;DHT22;8060;50.948;3.146;2022-12-07T11:11:35;8.60;99.90
15922;DHT22;8060;50.948;3.146;2022-12-07T11:14:14;8.40;99.90
15922;DHT22;8060;50.948;3.146;2022-12-07T11:16:52;8.30;99.90
15922;DHT22;8060;50.948;3.146;2022-12-07T11:22:34;8.00;99.90
15922;DHT22;8060;50.948;3.146;2022-12-07T11:25:23;8.00;99.90
15922;DHT22;8060;50.948;3.146;2022-12-07T11:28:08;8.00;99.90
15922;DHT22;8060;50.948;3.146;2022-12-07T11:30:45;8.20;99.90
15922;DHT22;8060;50.948;3.146;2022-12-07T11:33:20;8.70;99.90
15922;DHT22;8060;50.948;3.146;2022-12-07T11:35:59;9.30;99.90
15922;DHT22;8060;50.948;3.146;2022-12-07T11:38:36;9.50;99.90
15922;DHT22;8060;50.948;3.146;2022-12-07T11:41:06;9.50;99.90
15922;DHT22;8060;50.948;3.146;2022-12-07T11:43:52;9.30;99.90
15922;DHT22;8060;50.948;3.146;2022-12-07T11:46:24;9.20;99.90
15922;DHT22;8060;50.948;3.146;2022-12-07T11:49:01;9.00;99.90
15922;DHT22;8060;50.948;3.146;2022-12-07T11:51:35;8.80;99.90
15922;DHT22;8060;50.948;3.146;2022-12-07T11:54:14;8.60;99.90
15922;DHT22;8060;50.948;3.146;2022-12-07T11:56:46;8.60;99.90
15922;DHT22;8060;50.948;3.146;2022-12-07T11:59:19;8.50;99.90
15922;DHT22;8060;50.948;3.146;2022-12-07T12:01:56;8.40;99.90
15922;DHT22;8060;50.948;3.146;2022-12-07T12:04:32;8.30;99.90
15922;DHT22;8060;50.948;3.146;2022-12-07T12:07:03;8.30;99.90
15922;DHT22;8060;50.948;3.146;2022-12-07T12:09:59;8.20;99.90
15922;DHT22;8060;50.948;3.146;2022-12-07T12:12:56;8.10;99.90
15922;DHT22;8060;50.948;3.146;2022-12-07T12:15:58;8.10;99.90
15922;DHT22;8060;50.948;3.146;2022-12-07T12:18:50;8.00;99.90
15922;DHT22;8060;50.948;3.146;2022-12-07T12:21:26;8.00;99.90
15922;DHT22;8060;50.948;3.146;2022-12-07T12:23:58;8.00;99.90
15922;DHT22;8060;50.948;3.146;2022-12-07T12:26:31;7.90;99.90
15922;DHT22;8060;50.948;3.146;2022-12-07T12:29:02;7.90;99.90
15922;DHT22;8060;50.948;3.146;2022-12-07T12:31:36;7.90;99.90
15922;DHT22;8060;50.948;3.146;2022-12-07T12:34:31;7.90;99.90
15922;DHT22;8060;50.948;3.146;2022-12-07T12:36:59;7.80;99.90
15922;DHT22;8060;50.948;3.146;2022-12-07T12:39:27;7.80;99.90
15922;DHT22;8060;50.948;3.146;2022-12-07T12:42:00;7.80;99.90
15922;DHT22;8060;50.948;3.146;2022-12-07T12:47:43;7.70;99.90
15922;DHT22;8060;50.948;3.146;2022-12-07T12:50:22;7.70;99.90
15922;DHT22;8060;50.948;3.146;2022-12-07T12:53:14;7.70;99.90
15922;DHT22;8060;50.948;3.146;2022-12-07T12:56:21;7.70;99.90
15922;DHT22;8060;50.948;3.146;2022-12-07T12:59:25;7.70;99.90
15922;DHT22;8060;50.948;3.146;2022-12-07T13:01:56;7.90;99.90
15922;DHT22;8060;50.948;3.146;2022-12-07T13:04:58;8.10;99.90
15922;DHT22;8060;50.948;3.146;2022-12-07T13:07:51;8.30;99.90
15922;DHT22;8060;50.948;3.146;2022-12-07T13:10:44;8.40;99.90
15922;DHT22;8060;50.948;3.146;2022-12-07T13:13:33;8.90;99.90
15922;DHT22;8060;50.948;3.146;2022-12-07T13:16:38;9.40;99.90
15922;DHT22;8060;50.948;3.146;2022-12-07T13:22:49;9.30;99.90
15922;DHT22;8060;50.948;3.146;2022-12-07T13:25:31;9.50;99.90
15922;DHT22;8060;50.948;3.146;2022-12-07T13:28:07;9.80;99.90
15922;DHT22;8060;50.948;3.146;2022-12-07T13:30:45;10.10;99.90
15922;DHT22;8060;50.948;3.146;2022-12-07T13:33:18;10.50;99.90
15922;DHT22;8060;50.948;3.146;2022-12-07T13:35:47;10.90;99.90
15922;DHT22;8060;50.948;3.146;2022-12-07T13:38:23;10.90;99.90
15922;DHT22;8060;50.948;3.146;2022-12-07T13:41:23;10.70;99.90
15922;DHT22;8060;50.948;3.146;2022-12-07T13:44:01;10.00;99.90
15922;DHT22;8060;50.948;3.146;2022-12-07T13:46:43;9.60;99.90
15922;DHT22;8060;50.948;3.146;2022-12-07T13:49:20;9.10;99.90
15922;DHT22;8060;50.948;3.146;2022-12-07T13:51:49;8.90;99.90
15922;DHT22;8060;50.948;3.146;2022-12-07T13:54:18;8.60;99.90
15922;DHT22;8060;50.948;3.146;2022-12-07T13:56:49;8.50;99.90
15922;DHT22;8060;50.948;3.146;2022-12-07T14:22:55;7.50;99.90
15922;DHT22;8060;50.948;3.146;2022-12-07T14:25:24;7.40;99.90
15922;DHT22;8060;50.948;3.146;2022-12-07T14:27:56;7.40;99.90
15922;DHT22;8060;50.948;3.146;2022-12-07T14:30:26;7.40;99.90
15922;DHT22;8060;50.948;3.146;2022-12-07T14:32:58;7.40;99.90
15922;DHT22;8060;50.948;3.146;2022-12-07T14:35:27;7.50;99.90
15922;DHT22;8060;50.948;3.146;2022-12-07T14:37:57;7.60;99.90
15922;DHT22;8060;50.948;3.146;2022-12-07T14:40:27;7.60;99.90
15922;DHT22;8060;50.948;3.146;2022-12-07T14:42:58;7.70;99.90
15922;DHT22;8060;50.948;3.146;2022-12-07T14:45:28;7.70;99.90
15922;DHT22;8060;50.948;3.146;2022-12-07T14:47:56;7.70;99.90
